createdAt,value
2018-02-01T00:01:22.384Z,5.20
2018-02-01T00:03:49.837Z,5.20
2018-02-01T00:06:17.377Z,5.10
2018-02-01T00:08:44.832Z,5.00
2018-02-01T00:11:12.300Z,5.10
2018-02-01T00:13:40.884Z,5.10
2018-02-01T00:16:08.372Z,4.90
2018-02-01T00:18:35.827Z,5.00
2018-02-01T00:21:03.308Z,4.90
2018-02-01T00:23:31.564Z,4.90
2018-02-01T00:26:00.126Z,4.90
2018-02-01T00:28:27.586Z,4.90
2018-02-01T00:30:55.078Z,4.90
2018-02-01T00:33:24.310Z,4.80
2018-02-01T00:35:54.483Z,4.80
2018-02-01T00:38:21.964Z,4.80
2018-02-01T00:40:49.436Z,4.80
2018-02-01T00:43:16.920Z,4.70
2018-02-01T00:45:46.277Z,4.70
2018-02-01T00:48:13.763Z,4.80
2018-02-01T00:50:41.215Z,4.80
2018-02-01T00:53:08.693Z,4.80
2018-02-01T00:55:36.930Z,4.80
2018-02-01T00:58:04.408Z,4.80
2018-02-01T01:00:32.890Z,4.80
2018-02-01T01:03:00.381Z,4.80
2018-02-01T01:05:28.708Z,4.70
2018-02-01T01:07:56.189Z,4.70
2018-02-01T01:10:23.659Z,4.70
2018-02-01T01:12:51.116Z,4.70
2018-02-01T01:15:19.553Z,4.70
2018-02-01T01:17:47.022Z,4.70
2018-02-01T01:20:14.507Z,4.80
2018-02-01T01:22:41.977Z,4.70
2018-02-01T01:25:10.473Z,4.70
2018-02-01T01:27:38.717Z,4.50
2018-02-01T01:30:06.197Z,4.50
2018-02-01T01:32:33.665Z,4.60
2018-02-01T01:35:01.133Z,4.60
2018-02-01T01:37:29.371Z,4.70
2018-02-01T01:39:56.832Z,4.70
2018-02-01T01:42:24.305Z,4.70
2018-02-01T01:44:51.778Z,4.60
2018-02-01T01:47:20.114Z,4.60
2018-02-01T01:49:47.673Z,4.60
2018-02-01T01:52:15.133Z,4.60
2018-02-01T01:54:43.577Z,4.60
2018-02-01T01:57:11.023Z,4.60
2018-02-01T01:59:38.500Z,4.50
2018-02-01T02:02:05.967Z,4.40
2018-02-01T02:04:33.446Z,4.40
2018-02-01T02:07:00.925Z,4.30
2018-02-01T02:09:28.401Z,4.20
2018-02-01T02:11:55.885Z,4.20
2018-02-01T02:14:23.401Z,4.20
2018-02-01T02:16:50.875Z,4.10
2018-02-01T02:19:18.988Z,4.10
2018-02-01T02:21:46.460Z,4.10
2018-02-01T02:24:13.944Z,4.00
2018-02-01T02:26:42.196Z,4.00
2018-02-01T02:29:09.777Z,4.00
2018-02-01T02:31:38.018Z,4.00
2018-02-01T02:34:05.473Z,4.00
2018-02-01T02:36:32.936Z,3.90
2018-02-01T02:39:00.439Z,3.90
2018-02-01T02:41:28.680Z,3.80
2018-02-01T02:43:56.149Z,3.90
2018-02-01T02:46:23.615Z,3.90
2018-02-01T02:48:51.854Z,3.80
2018-02-01T02:51:20.407Z,3.80
2018-02-01T02:53:48.015Z,3.70
2018-02-01T02:56:15.486Z,3.70
2018-02-01T02:58:43.000Z,3.70
2018-02-01T03:01:10.471Z,3.70
2018-02-01T03:03:37.950Z,3.70
2018-02-01T03:06:05.417Z,3.70
2018-02-01T03:08:33.660Z,3.70
2018-02-01T03:11:01.113Z,3.70
2018-02-01T03:13:28.654Z,3.70
2018-02-01T03:15:56.891Z,3.70
2018-02-01T03:18:25.125Z,3.60
2018-02-01T03:20:52.581Z,3.60
2018-02-01T03:23:20.180Z,3.60
2018-02-01T03:25:49.424Z,3.50
2018-02-01T03:28:17.777Z,3.50
2018-02-01T03:30:45.228Z,3.50
2018-02-01T03:33:12.818Z,3.50
2018-02-01T03:35:40.294Z,3.50
2018-02-01T03:38:07.758Z,3.50
2018-02-01T03:40:36.108Z,3.50
2018-02-01T03:43:03.597Z,3.50
2018-02-01T03:45:31.070Z,3.50
2018-02-01T03:48:00.290Z,3.40
2018-02-01T03:50:27.878Z,3.40
2018-02-01T03:52:55.330Z,3.30
2018-02-01T03:55:22.802Z,3.30
2018-02-01T03:57:50.271Z,3.40
2018-02-01T04:00:17.865Z,3.40
2018-02-01T04:02:46.089Z,3.30
2018-02-01T04:05:13.688Z,3.30
2018-02-01T04:07:41.159Z,3.30
2018-02-01T04:10:10.584Z,3.20
2018-02-01T04:12:38.047Z,3.20
2018-02-01T04:15:05.510Z,3.20
2018-02-01T04:17:32.982Z,3.10
2018-02-01T04:20:00.452Z,3.10
2018-02-01T04:22:28.113Z,3.10
2018-02-01T04:24:55.624Z,3.00
2018-02-01T04:27:23.220Z,3.10
2018-02-01T04:29:50.700Z,3.00
2018-02-01T04:32:18.174Z,3.10
2018-02-01T04:34:46.401Z,3.10
2018-02-01T04:37:13.875Z,3.10
2018-02-01T04:39:41.500Z,3.10
2018-02-01T04:42:09.036Z,3.20
2018-02-01T04:44:37.402Z,3.20
2018-02-01T04:47:05.636Z,3.20
2018-02-01T04:49:33.957Z,3.20
2018-02-01T04:52:02.269Z,3.20
2018-02-01T04:54:29.733Z,3.20
2018-02-01T04:56:57.218Z,3.20
2018-02-01T04:59:24.794Z,3.20
2018-02-01T05:01:52.266Z,3.20
2018-02-01T05:04:20.479Z,3.20
2018-02-01T05:06:49.880Z,3.20
2018-02-01T05:09:17.348Z,3.20
2018-02-01T05:11:44.807Z,3.10
2018-02-01T05:14:12.332Z,3.10
2018-02-01T05:16:40.801Z,3.10
2018-02-01T05:19:09.037Z,3.10
2018-02-01T05:21:37.514Z,3.10
2018-02-01T05:24:05.917Z,3.10
2018-02-01T05:26:33.445Z,3.10
2018-02-01T05:29:01.522Z,3.20
2018-02-01T05:31:28.997Z,3.20
2018-02-01T05:33:57.300Z,3.30
2018-02-01T05:36:25.595Z,3.20
2018-02-01T05:38:53.817Z,3.30
2018-02-01T05:41:21.292Z,3.20
2018-02-01T05:43:49.530Z,3.20
2018-02-01T05:46:16.997Z,3.20
2018-02-01T05:48:44.449Z,3.20
2018-02-01T05:51:11.928Z,3.30
2018-02-01T05:53:39.418Z,3.20
2018-02-01T05:56:07.697Z,3.30
2018-02-01T05:58:35.122Z,3.20
2018-02-01T06:01:02.589Z,3.30
2018-02-01T06:03:30.069Z,3.20
2018-02-01T06:05:58.595Z,3.20
2018-02-01T06:08:26.119Z,3.20
2018-02-01T06:10:55.560Z,3.20
2018-02-01T06:13:23.077Z,3.20
2018-02-01T06:15:50.592Z,3.20
2018-02-01T06:18:18.066Z,3.20
2018-02-01T06:20:46.314Z,3.10
2018-02-01T06:23:13.808Z,3.10
2018-02-01T06:25:42.023Z,3.10
2018-02-01T06:28:10.365Z,3.10
2018-02-01T06:30:37.849Z,3.20
2018-02-01T06:33:05.337Z,3.20
2018-02-01T06:35:32.927Z,3.10
2018-02-01T06:38:01.168Z,3.10
2018-02-01T06:40:28.641Z,3.10
2018-02-01T06:42:56.984Z,3.10
2018-02-01T06:45:25.076Z,3.10
2018-02-01T06:47:52.559Z,3.10
2018-02-01T06:50:20.792Z,3.10
2018-02-01T06:52:48.250Z,3.10
2018-02-01T06:55:15.729Z,3.10
2018-02-01T06:57:43.208Z,3.10
2018-02-01T07:00:11.443Z,3.00
2018-02-01T07:02:39.758Z,3.00
2018-02-01T07:05:09.004Z,3.10
2018-02-01T07:07:36.616Z,3.00
2018-02-01T07:10:04.845Z,3.10
2018-02-01T07:12:32.393Z,3.00
2018-02-01T07:14:59.856Z,3.10
2018-02-01T07:17:27.322Z,3.00
2018-02-01T07:19:54.963Z,3.00
2018-02-01T07:22:22.749Z,3.00
2018-02-01T07:24:50.267Z,3.00
2018-02-01T07:27:17.723Z,3.00
2018-02-01T07:29:45.227Z,3.00
2018-02-01T07:32:12.688Z,3.00
2018-02-01T07:34:40.168Z,3.00
2018-02-01T07:37:07.661Z,3.10
2018-02-01T07:39:36.004Z,3.20
2018-02-01T07:42:04.244Z,3.30
2018-02-01T07:44:31.725Z,3.30
2018-02-01T07:47:10.047Z,3.40
2018-02-01T07:49:37.512Z,3.50
2018-02-01T07:52:05.745Z,3.80
2018-02-01T07:54:33.265Z,3.80
2018-02-01T07:57:00.748Z,4.00
2018-02-01T07:59:28.275Z,4.00
2018-02-01T08:01:57.490Z,4.00
2018-02-01T08:04:24.964Z,4.10
2018-02-01T08:06:52.448Z,4.00
2018-02-01T08:09:19.909Z,4.00
2018-02-01T08:11:47.383Z,3.90
2018-02-01T08:14:14.867Z,3.90
2018-02-01T08:16:43.244Z,3.90
2018-02-01T08:19:11.673Z,3.90
2018-02-01T08:21:39.133Z,4.00
2018-02-01T08:24:07.632Z,4.00
2018-02-01T08:26:35.100Z,4.10
2018-02-01T08:29:03.326Z,4.50
2018-02-01T08:31:30.809Z,4.40
2018-02-01T08:33:59.174Z,4.70
2018-02-01T08:36:27.628Z,4.70
2018-02-01T08:38:55.270Z,4.90
2018-02-01T08:41:22.828Z,5.00
2018-02-01T08:43:50.298Z,5.00
2018-02-01T08:46:17.761Z,5.00
2018-02-01T08:48:45.235Z,5.10
2018-02-01T08:51:12.712Z,5.10
2018-02-01T08:53:40.186Z,5.20
2018-02-01T08:56:09.285Z,5.00
2018-02-01T08:58:38.361Z,4.90
2018-02-01T09:01:06.616Z,5.10
2018-02-01T09:03:34.098Z,5.10
2018-02-01T09:06:01.583Z,5.00
2018-02-01T09:08:29.061Z,5.20
2018-02-01T09:10:56.524Z,5.10
2018-02-01T09:13:23.997Z,5.20
2018-02-01T09:15:51.467Z,5.20
2018-02-01T09:18:18.927Z,5.30
2018-02-01T09:20:46.393Z,5.10
2018-02-01T09:23:15.845Z,4.80
2018-02-01T09:25:43.344Z,4.70
2018-02-01T09:28:10.812Z,5.00
2018-02-01T09:30:38.285Z,5.50
2018-02-01T09:33:06.678Z,5.00
2018-02-01T09:35:35.988Z,4.90
2018-02-01T09:38:03.464Z,4.90
2018-02-01T09:40:30.996Z,4.90
2018-02-01T09:42:59.461Z,4.80
2018-02-01T09:45:27.717Z,4.70
2018-02-01T09:47:55.214Z,4.70
2018-02-01T09:50:22.698Z,4.70
2018-02-01T09:52:50.180Z,4.70
2018-02-01T09:55:17.668Z,4.70
2018-02-01T09:57:45.898Z,4.60
2018-02-01T10:00:13.376Z,4.60
2018-02-01T10:02:40.840Z,4.60
2018-02-01T10:05:08.322Z,4.60
2018-02-01T10:07:36.730Z,4.70
2018-02-01T10:10:04.248Z,4.70
2018-02-01T10:12:31.694Z,4.80
2018-02-01T10:14:59.237Z,4.80
2018-02-01T10:17:26.721Z,4.90
2018-02-01T10:19:54.953Z,5.10
2018-02-01T10:22:22.420Z,5.00
2018-02-01T10:24:49.915Z,5.10
2018-02-01T10:27:18.146Z,5.10
2018-02-01T10:29:45.622Z,5.00
2018-02-01T10:32:14.065Z,5.10
2018-02-01T10:34:41.520Z,5.10
2018-02-01T10:37:08.996Z,5.10
2018-02-01T10:39:36.457Z,5.10
2018-02-01T10:42:03.993Z,5.10
2018-02-01T10:44:31.450Z,5.20
2018-02-01T10:46:58.920Z,5.10
2018-02-01T10:49:26.383Z,5.10
2018-02-01T10:51:53.869Z,5.10
2018-02-01T10:54:22.133Z,5.10
2018-02-01T10:56:50.677Z,5.10
2018-02-01T10:59:18.144Z,5.10
2018-02-01T11:01:45.604Z,5.20
2018-02-01T11:04:13.082Z,5.20
2018-02-01T11:06:40.573Z,5.20
2018-02-01T11:09:08.940Z,5.30
2018-02-01T11:11:37.173Z,5.30
2018-02-01T11:14:04.765Z,5.30
2018-02-01T11:16:32.232Z,5.40
2018-02-01T11:19:00.503Z,5.40
2018-02-01T11:21:28.477Z,5.30
2018-02-01T11:23:56.704Z,5.20
2018-02-01T11:26:24.183Z,5.20
2018-02-01T11:28:51.658Z,5.20
2018-02-01T11:31:20.323Z,5.20
2018-02-01T11:33:47.783Z,5.30
2018-02-01T11:36:15.341Z,5.50
2018-02-01T11:38:43.009Z,5.50
2018-02-01T11:41:12.438Z,5.40
2018-02-01T11:43:40.683Z,5.50
2018-02-01T11:46:08.329Z,5.40
2018-02-01T11:48:35.809Z,5.40
2018-02-01T11:51:04.784Z,5.40
2018-02-01T11:53:33.265Z,5.30
2018-02-01T11:56:00.744Z,5.30
2018-02-01T11:58:29.247Z,5.30
2018-02-01T12:00:57.482Z,5.50
2018-02-01T12:03:24.965Z,5.50
2018-02-01T12:05:53.201Z,5.50
2018-02-01T12:08:20.794Z,5.50
2018-02-01T12:10:48.256Z,5.50
2018-02-01T12:13:15.737Z,5.60
2018-02-01T12:15:43.201Z,5.60
2018-02-01T12:18:10.685Z,5.60
2018-02-01T12:20:38.155Z,5.60
2018-02-01T12:23:05.622Z,5.60
2018-02-01T12:25:33.076Z,5.70
2018-02-01T12:28:00.975Z,5.60
2018-02-01T12:30:29.197Z,5.70
2018-02-01T12:32:56.809Z,5.70
2018-02-01T12:35:25.036Z,5.80
2018-02-01T12:37:52.514Z,5.70
2018-02-01T12:40:19.980Z,5.70
2018-02-01T12:42:48.452Z,5.70
2018-02-01T12:45:15.935Z,5.70
2018-02-01T12:47:44.765Z,5.60
2018-02-01T12:50:12.235Z,5.60
2018-02-01T12:52:39.680Z,5.50
2018-02-01T12:55:07.162Z,5.50
2018-02-01T12:57:34.658Z,5.50
2018-02-01T13:00:02.885Z,5.30
2018-02-01T13:02:30.470Z,5.30
2018-02-01T13:04:57.945Z,5.20
2018-02-01T13:07:26.165Z,5.10
2018-02-01T13:09:53.636Z,5.10
2018-02-01T13:12:22.091Z,5.20
2018-02-01T13:14:49.683Z,5.20
2018-02-01T13:17:17.138Z,5.30
2018-02-01T13:19:44.799Z,5.30
2018-02-01T13:22:12.376Z,5.40
2018-02-01T13:24:40.833Z,5.40
2018-02-01T13:27:08.412Z,5.40
2018-02-01T13:29:35.869Z,5.40
2018-02-01T13:32:03.409Z,5.30
2018-02-01T13:34:31.048Z,5.20
2018-02-01T13:36:59.496Z,5.20
2018-02-01T13:39:28.568Z,4.80
2018-02-01T13:41:56.021Z,4.80
2018-02-01T13:44:25.006Z,4.80
2018-02-01T13:46:52.473Z,4.80
2018-02-01T13:49:20.972Z,4.80
2018-02-01T13:51:49.207Z,4.90
2018-02-01T13:54:16.789Z,4.80
2018-02-01T13:56:44.265Z,4.90
2018-02-01T13:59:12.497Z,4.90
2018-02-01T14:01:39.958Z,4.80
2018-02-01T14:04:10.424Z,4.90
2018-02-01T14:06:38.715Z,4.80
2018-02-01T14:09:06.407Z,4.80
2018-02-01T14:11:33.860Z,4.80
2018-02-01T14:14:01.574Z,4.80
2018-02-01T14:16:29.061Z,4.80
2018-02-01T14:18:56.678Z,4.70
2018-02-01T14:21:24.921Z,4.70
2018-02-01T14:23:52.393Z,4.70
2018-02-01T14:26:20.601Z,4.60
2018-02-01T14:28:48.053Z,4.70
2018-02-01T14:31:17.209Z,4.60
2018-02-01T14:33:44.900Z,4.70
2018-02-01T14:36:13.136Z,4.60
2018-02-01T14:38:40.606Z,4.60
2018-02-01T14:41:08.122Z,4.60
2018-02-01T14:43:35.541Z,4.70
2018-02-01T14:46:04.542Z,4.70
2018-02-01T14:48:32.017Z,4.70
2018-02-01T14:51:00.404Z,4.60
2018-02-01T14:53:27.883Z,4.60
2018-02-01T14:55:55.374Z,4.50
2018-02-01T14:58:23.285Z,4.60
2018-02-01T15:00:50.769Z,4.60
2018-02-01T15:03:18.244Z,4.60
2018-02-01T15:05:45.804Z,4.60
2018-02-01T15:08:13.373Z,4.70
2018-02-01T15:10:40.853Z,4.70
2018-02-01T15:13:09.109Z,4.70
2018-02-01T15:15:37.511Z,4.70
2018-02-01T15:18:05.757Z,4.90
2018-02-01T15:20:33.403Z,4.90
2018-02-01T15:23:01.810Z,5.00
2018-02-01T15:25:29.480Z,5.00
2018-02-01T15:27:57.733Z,5.20
2018-02-01T15:30:25.198Z,5.10
2018-02-01T15:32:53.618Z,5.20
2018-02-01T15:35:21.076Z,5.20
2018-02-01T15:37:48.564Z,5.20
2018-02-01T15:40:17.036Z,5.20
2018-02-01T15:42:44.530Z,5.00
2018-02-01T15:45:12.122Z,5.00
2018-02-01T15:47:40.364Z,5.10
2018-02-01T15:50:07.820Z,5.00
2018-02-01T15:52:35.299Z,5.10
2018-02-01T15:55:03.560Z,5.10
2018-02-01T15:57:31.898Z,5.00
2018-02-01T15:59:59.505Z,5.00
2018-02-01T16:02:27.333Z,5.00
2018-02-01T16:05:06.155Z,5.00
2018-02-01T16:07:34.321Z,5.00
2018-02-01T16:10:01.808Z,5.00
2018-02-01T16:12:30.916Z,5.00
2018-02-01T16:15:00.829Z,4.80
2018-02-01T16:17:28.900Z,4.90
2018-02-01T16:19:58.009Z,4.90
2018-02-01T16:22:25.476Z,4.90
2018-02-01T16:24:53.797Z,4.80
2018-02-01T16:27:21.288Z,4.80
2018-02-01T16:29:48.756Z,4.80
2018-02-01T16:32:17.050Z,4.60
2018-02-01T16:34:44.623Z,4.60
2018-02-01T16:37:13.024Z,4.60
2018-02-01T16:39:40.566Z,4.60
2018-02-01T16:42:09.822Z,4.60
2018-02-01T16:44:37.278Z,4.50
2018-02-01T16:47:04.777Z,4.50
2018-02-01T16:49:32.255Z,4.50
2018-02-01T16:51:59.708Z,4.40
2018-02-01T16:54:28.617Z,4.30
2018-02-01T16:56:56.069Z,4.30
2018-02-01T16:59:23.549Z,4.30
2018-02-01T17:01:51.012Z,4.20
2018-02-01T17:04:19.252Z,4.10
2018-02-01T17:06:46.713Z,4.10
2018-02-01T17:09:14.173Z,4.10
2018-02-01T17:11:41.648Z,4.10
2018-02-01T17:14:09.179Z,4.10
2018-02-01T17:16:37.384Z,4.10
2018-02-01T17:19:05.001Z,4.10
2018-02-01T17:21:32.473Z,4.10
2018-02-01T17:24:00.796Z,4.20
2018-02-01T17:26:29.037Z,4.20
2018-02-01T17:28:56.581Z,4.10
2018-02-01T17:31:24.116Z,4.20
2018-02-01T17:33:51.589Z,4.10
2018-02-01T17:36:19.069Z,4.10
2018-02-01T17:38:47.572Z,4.10
2018-02-01T17:41:15.833Z,4.00
2018-02-01T17:43:43.331Z,4.00
2018-02-01T17:46:11.569Z,4.00
2018-02-01T17:48:39.050Z,4.00
2018-02-01T17:51:07.300Z,4.00
2018-02-01T17:53:36.400Z,4.00
2018-02-01T17:56:04.775Z,4.00
2018-02-01T17:58:32.236Z,4.10
2018-02-01T18:00:59.738Z,4.20
2018-02-01T18:03:28.065Z,4.20
2018-02-01T18:05:56.295Z,4.20
2018-02-01T18:08:23.772Z,4.10
2018-02-01T18:10:51.235Z,4.20
2018-02-01T18:13:18.724Z,4.10
2018-02-01T18:15:47.886Z,4.10
2018-02-01T18:18:16.254Z,4.10
2018-02-01T18:20:43.729Z,4.10
2018-02-01T18:23:12.245Z,4.00
2018-02-01T18:25:40.706Z,4.00
2018-02-01T18:28:08.238Z,4.00
2018-02-01T18:30:36.730Z,4.00
2018-02-01T18:33:04.221Z,4.00
2018-02-01T18:35:33.099Z,4.00
2018-02-01T18:38:00.610Z,4.00
2018-02-01T18:40:28.228Z,4.00
2018-02-01T18:42:56.463Z,4.00
2018-02-01T18:45:23.970Z,3.90
2018-02-01T18:47:52.226Z,4.00
2018-02-01T18:50:21.469Z,4.00
2018-02-01T18:52:49.054Z,4.00
2018-02-01T18:55:16.668Z,4.00
2018-02-01T18:57:44.328Z,4.00
2018-02-01T19:00:12.696Z,3.90
2018-02-01T19:02:40.995Z,4.00
2018-02-01T19:05:08.536Z,4.00
2018-02-01T19:07:36.923Z,4.00
2018-02-01T19:10:04.487Z,4.00
2018-02-01T19:12:32.827Z,4.00
2018-02-01T19:15:01.015Z,4.10
2018-02-01T19:17:29.329Z,4.10
2018-02-01T19:19:57.276Z,4.00
2018-02-01T19:22:25.380Z,4.00
2018-02-01T19:24:53.144Z,4.00
2018-02-01T19:27:21.872Z,4.10
2018-02-01T19:29:51.509Z,4.20
2018-02-01T19:32:19.154Z,4.10
2018-02-01T19:34:47.042Z,4.10
2018-02-01T19:37:14.572Z,4.00
2018-02-01T19:39:43.685Z,3.90
2018-02-01T19:42:11.986Z,3.90
2018-02-01T19:44:40.398Z,3.80
2018-02-01T19:47:08.870Z,3.80
2018-02-01T19:49:36.987Z,3.70
2018-02-01T19:52:08.145Z,3.70
2018-02-01T19:54:42.011Z,3.70
2018-02-01T19:57:11.017Z,3.70
2018-02-01T19:59:38.834Z,3.80
2018-02-01T20:02:06.465Z,3.90
2018-02-01T20:04:36.282Z,4.00
2018-02-01T20:07:03.835Z,4.00
2018-02-01T20:09:32.094Z,4.10
2018-02-01T20:11:59.626Z,4.10
2018-02-01T20:14:28.041Z,4.10
2018-02-01T20:16:56.288Z,3.90
2018-02-01T20:19:23.750Z,3.90
2018-02-01T20:21:51.771Z,3.80
2018-02-01T20:24:19.299Z,3.80
2018-02-01T20:26:48.465Z,3.80
2018-02-01T20:29:16.741Z,3.80
2018-02-01T20:31:45.702Z,3.70
2018-02-01T20:34:13.649Z,3.70
2018-02-01T20:36:43.623Z,3.70
2018-02-01T20:39:12.892Z,3.60
2018-02-01T20:41:41.079Z,3.60
2018-02-01T20:46:43.354Z,3.60
2018-02-01T20:49:11.868Z,3.60
2018-02-01T20:51:40.612Z,3.60
2018-02-01T20:54:08.257Z,3.50
2018-02-01T20:56:36.641Z,3.50
2018-02-01T20:59:04.413Z,3.50
2018-02-01T21:01:31.881Z,3.40
2018-02-01T21:03:59.518Z,3.40
2018-02-01T21:06:27.226Z,3.30
2018-02-01T21:08:55.343Z,3.30
2018-02-01T21:11:23.868Z,3.30
2018-02-01T21:13:52.382Z,3.30
2018-02-01T21:16:20.722Z,3.30
2018-02-01T21:18:49.730Z,3.30
2018-02-01T21:21:18.182Z,3.20
2018-02-01T21:23:46.495Z,3.20
2018-02-01T21:26:15.378Z,3.20
2018-02-01T21:28:44.682Z,3.30
2018-02-01T21:31:12.733Z,3.30
2018-02-01T21:33:40.218Z,3.30
2018-02-01T21:36:07.834Z,3.30
2018-02-01T21:38:35.457Z,3.30
2018-02-01T21:41:02.985Z,3.40
2018-02-01T21:43:30.937Z,3.40
2018-02-01T21:45:58.545Z,3.40
2018-02-01T21:48:26.315Z,3.40
2018-02-01T21:50:53.909Z,3.30
2018-02-01T21:53:21.474Z,3.30
2018-02-01T21:55:49.987Z,3.30
2018-02-01T21:58:18.005Z,3.30
2018-02-01T22:00:45.883Z,3.30
2018-02-01T22:03:14.307Z,3.30
2018-02-01T22:05:43.489Z,3.30
2018-02-01T22:08:12.443Z,3.30
2018-02-01T22:10:41.561Z,3.20
2018-02-01T22:13:09.108Z,3.30
2018-02-01T22:15:36.617Z,3.20
2018-02-01T22:18:04.852Z,3.20
2018-02-01T22:20:32.413Z,3.20
2018-02-01T22:22:59.921Z,3.30
2018-02-01T22:25:27.478Z,3.30
2018-02-01T22:27:55.774Z,3.30
2018-02-01T22:30:24.124Z,3.40
2018-02-01T22:32:53.316Z,3.40
2018-02-01T22:35:22.436Z,3.40
2018-02-01T22:37:50.187Z,3.40
2018-02-01T22:40:19.341Z,3.40
2018-02-01T22:42:47.648Z,3.30
2018-02-01T22:45:15.957Z,3.40
2018-02-01T22:47:43.483Z,3.40
2018-02-01T22:50:10.969Z,3.40
2018-02-01T22:52:38.634Z,3.40
2018-02-01T22:55:06.104Z,3.40
2018-02-01T22:57:33.663Z,3.40
2018-02-01T23:00:02.770Z,3.40
2018-02-01T23:02:30.234Z,3.40
2018-02-01T23:04:57.696Z,3.40
2018-02-01T23:07:25.157Z,3.50
2018-02-01T23:09:52.626Z,3.50
2018-02-01T23:12:21.174Z,3.50
2018-02-01T23:14:48.802Z,3.50
2018-02-01T23:17:17.213Z,3.50
2018-02-01T23:19:44.842Z,3.50
2018-02-01T23:22:13.066Z,3.60
2018-02-01T23:24:42.034Z,3.60
2018-02-01T23:27:09.754Z,3.60
2018-02-01T23:29:37.597Z,3.60
2018-02-01T23:32:07.116Z,3.60
2018-02-01T23:34:35.961Z,3.60
2018-02-01T23:37:03.450Z,3.70
2018-02-01T23:39:30.913Z,3.60
2018-02-01T23:41:59.888Z,3.60
2018-02-01T23:44:27.380Z,3.60
2018-02-01T23:46:54.866Z,3.70
2018-02-01T23:49:22.320Z,3.70
2018-02-01T23:51:50.810Z,3.60
2018-02-01T23:54:19.108Z,3.60
2018-02-01T23:56:47.715Z,3.60
2018-02-01T23:59:15.263Z,3.60
